TNF weather

Toussus-le-Noble Airport
Toussus-le-Noble, Île-de-France, France

Public forecast

Using degrees Celsius for public forecast. Weather courtesy of forecast.io.

METAR (pilot weather report)

Retrieved 2019/06/16 16:30 UTC (0 seconds ago):

LFPN 161630Z AUTO 22007KT 180V260 CAVOK 22/12 Q1021 NOSIG

TAF (pilot weather forecast)

Closest forecast is Villacoublay-Vélizy (BA 107) Air Base, 3.6 nm (6.7 km) ENE. Retrieved 2019/06/16 15:03 UTC (1 hour ago):

TAF TAF LFPV 161400Z 1615/1715 23010KT 9999 BKN045 BECMG 1620/1622 VRB02KT